Time;durP1;ratioP1;P1;durP2;ratioP2;P2;SDS_P1;SDS_P2;PMS_P1;PMS_P2;Temp;Humidity;BMP_temperature;BMP_pressure;BME280_temperature;BME280_humidity;BME280_pressure;Samples;Min_cycle;Max_cycle;Signal;HPM_P1;HPM_P2
2022/01/22 00:01:51;;;;;;;14.82;9.57;;;;;;;3.06;75.26;100170.53;4111643;28;20269;-52
2022/01/22 00:03:53;;;;;;;10.60;9.68;;;;;;;3.08;75.64;100177.44;4107535;28;20211;-54
2022/01/22 00:05:54;;;;;;;9.80;8.90;;;;;;;3.07;75.14;100181.16;4075342;28;20263;-53
2022/01/22 00:07:57;;;;;;;12.85;9.10;;;;;;;3.10;75.90;100178.16;4089837;29;20220;-53
2022/01/22 00:10:03;;;;;;;10.50;9.57;;;;;;;3.19;75.21;100185.28;4107812;28;20588;-53
2022/01/22 00:12:07;;;;;;;10.07;9.27;;;;;;;3.11;75.47;100179.84;4121591;28;20242;-53
2022/01/22 00:14:24;;;;;;;11.88;9.85;;;;;;;3.08;75.41;100172.03;4121624;28;20206;-53
2022/01/22 00:16:26;;;;;;;11.93;10.52;;;;;;;3.16;75.23;100169.41;4109030;28;20649;-54
2022/01/22 00:18:27;;;;;;;11.75;10.75;;;;;;;3.09;75.17;100164.78;4098933;28;20212;-54
2022/01/22 00:20:29;;;;;;;11.82;10.75;;;;;;;3.11;75.57;100165.47;4127141;28;20207;-53
2022/01/22 00:22:34;;;;;;;14.45;10.20;;;;;;;3.07;75.15;100164.94;4111701;28;20254;-54
2022/01/22 00:24:38;;;;;;;12.57;11.27;;;;;;;3.07;75.16;100159.53;4124630;28;20268;-53
2022/01/22 00:26:42;;;;;;;10.85;9.27;;;;;;;3.07;75.89;100164.94;4122228;28;20237;-53
2022/01/22 00:28:43;;;;;;;16.67;11.15;;;;;;;3.08;75.11;100161.22;4122262;28;20651;-53
2022/01/22 00:30:45;;;;;;;11.15;10.10;;;;;;;3.14;75.16;100165.16;4091382;28;20843;-54
2022/01/22 00:32:48;;;;;;;14.45;9.40;;;;;;;3.03;75.30;100163.59;4109965;28;20202;-54
2022/01/22 00:34:50;;;;;;;12.10;10.25;;;;;;;3.12;75.27;100157.19;4096055;28;20246;-54
2022/01/22 00:36:52;;;;;;;11.77;10.35;;;;;;;3.10;75.48;100159.22;4125559;28;20264;-53
2022/01/22 00:38:54;;;;;;;13.40;9.68;;;;;;;3.07;75.44;100164.94;4127625;28;20253;-54
2022/01/22 00:40:56;;;;;;;9.70;8.80;;;;;;;3.10;75.67;100159.22;4124683;28;20578;-53
2022/01/22 00:42:57;;;;;;;12.07;10.93;;;;;;;3.16;75.25;100158.59;4108318;28;20231;-53
2022/01/22 00:45:02;;;;;;;13.98;10.55;;;;;;;3.10;75.98;100170.06;4111396;28;20199;-53
2022/01/22 00:47:05;;;;;;;14.88;12.25;;;;;;;3.16;75.25;100164.00;4124076;28;20671;-53
2022/01/22 00:49:06;;;;;;;14.18;12.98;;;;;;;3.14;75.59;100171.41;4108390;28;20199;-55
2022/01/22 00:51:08;;;;;;;14.77;13.43;;;;;;;3.16;75.75;100174.81;4107625;28;20241;-54
2022/01/22 00:53:10;;;;;;;19.00;14.27;;;;;;;3.18;75.46;100167.38;4126204;28;20209;-54
2022/01/22 00:55:13;;;;;;;11.48;10.57;;;;;;;3.10;75.72;100170.06;4106751;28;20217;-54
2022/01/22 00:57:15;;;;;;;13.10;10.95;;;;;;;3.09;75.56;100172.91;4108815;28;20207;-54
2022/01/22 00:59:16;;;;;;;13.13;12.02;;;;;;;3.13;75.58;100169.72;4123748;28;20237;-55
2022/01/22 01:01:18;;;;;;;14.32;12.57;;;;;;;3.07;75.72;100164.13;4107489;28;20266;-54
2022/01/22 01:03:20;;;;;;;16.75;11.60;;;;;;;3.07;75.55;100164.94;4109093;28;20281;-54
2022/01/22 01:05:22;;;;;;;11.82;10.75;;;;;;;3.12;76.02;100168.03;4109215;28;20246;-53
2022/01/22 01:07:24;;;;;;;13.27;10.93;;;;;;;3.13;75.67;100164.31;4107535;28;20265;-54
2022/01/22 01:09:26;;;;;;;12.00;11.00;;;;;;;3.10;75.90;100159.22;4127177;28;20211;-54
2022/01/22 01:11:29;;;;;;;15.60;11.35;;;;;;;3.07;75.38;100156.00;4108150;28;20223;-53
2022/01/22 01:13:37;;;;;;;11.27;10.18;;;;;;;3.08;75.22;100160.41;4126715;28;20217;-54
2022/01/22 01:32:10;;;;;;;12.18;11.07;;;;;;;3.08;75.37;100155.81;4211619;28;20229;-54
2022/01/22 01:32:15;;;;;;;12.93;11.60;;;;;;;3.05;75.36;100148.03;4186409;28;20269;-55
2022/01/22 01:34:21;;;;;;;15.93;13.25;;;;;;;3.15;75.30;100151.47;4190648;28;20215;-55
2022/01/22 01:36:22;;;;;;;14.93;9.95;;;;;;;3.11;75.28;100150.09;4197313;28;20199;-54
2022/01/22 01:38:24;;;;;;;10.98;9.93;;;;;;;3.15;75.16;100162.28;4189389;28;20668;-55
2022/01/22 01:40:28;;;;;;;11.85;9.55;;;;;;;3.18;75.31;100167.38;4192180;28;20281;-54
2022/01/22 01:44:47;;;;;;;11.27;10.02;;;;;;;3.14;75.11;100157.88;4189777;28;20198;-53
2022/01/22 01:46:55;;;;;;;11.40;10.15;;;;;;;3.13;75.85;100161.59;4190807;28;20203;-53
2022/01/22 01:48:58;;;;;;;12.65;9.68;;;;;;;3.16;75.25;100173.94;4210535;28;20295;-54
2022/01/22 01:51:00;;;;;;;12.13;11.02;;;;;;;3.18;74.73;100171.91;4192070;28;20209;-53
2022/01/22 01:57:26;;;;;;;14.85;10.60;;;;;;;3.23;75.30;100170.44;4141552;28;20224;-54
2022/01/22 01:58:04;;;;;;;22.05;10.82;;;;;;;3.16;75.35;100168.53;4178547;28;20268;-55
2022/01/22 02:00:09;;;;;;;12.15;9.40;;;;;;;3.19;75.08;100169.06;4188200;28;20203;-55
2022/01/22 02:02:12;;;;;;;12.77;11.55;;;;;;;3.30;74.80;100176.03;4170730;28;20224;-53
2022/01/22 02:04:15;;;;;;;13.80;10.27;;;;;;;3.18;74.86;100172.78;4188621;28;20210;-53
2022/01/22 02:06:16;;;;;;;12.07;10.50;;;;;;;3.20;74.70;100181.56;4190502;28;20199;-55
2022/01/22 02:08:19;;;;;;;10.18;9.27;;;;;;;3.25;74.89;100181.94;4194742;28;20612;-54
2022/01/22 02:10:26;;;;;;;11.82;10.63;;;;;;;3.31;74.43;100175.88;4170960;28;20211;-53
2022/01/22 02:23:33;;;;;;;14.60;9.63;;;;;;;3.22;74.69;100179.56;4190228;28;20211;-53
2022/01/22 02:23:55;;;;;;;10.10;8.95;;;;;;;3.26;74.74;100175.50;4191455;28;20203;-53
2022/01/22 02:25:57;;;;;;;9.90;9.13;;;;;;;3.32;74.66;100166.75;4183324;28;20601;-53
2022/01/22 02:28:01;;;;;;;11.15;9.85;;;;;;;3.30;74.41;100165.22;4176913;28;20201;-53
2022/01/22 02:30:03;;;;;;;10.75;9.75;;;;;;;3.23;74.71;100162.34;4178346;28;20848;-54
2022/01/22 02:34:40;;;;;;;11.05;8.77;;;;;;;3.24;74.67;100161.31;4178399;28;20309;-52
2022/01/22 02:36:58;;;;;;;15.68;9.18;;;;;;;3.24;75.19;100155.91;4179808;28;20211;-53
2022/01/22 02:41:05;;;;;;;11.75;9.65;;;;;;;3.27;74.76;100154.75;4177002;28;20227;-53
2022/01/22 02:43:09;;;;;;;13.38;9.48;;;;;;;3.16;75.34;100147.78;4162292;28;20308;-54
2022/01/22 02:45:17;;;;;;;14.70;9.68;;;;;;;3.19;75.40;100152.84;4198027;28;20230;-55
2022/01/22 02:47:19;;;;;;;11.75;9.88;;;;;;;3.14;75.24;100144.34;4183199;28;20298;-54
2022/01/22 02:49:21;;;;;;;17.85;10.55;;;;;;;3.17;74.75;100154.88;4190874;28;20204;-54
2022/01/22 02:51:25;;;;;;;12.80;10.05;;;;;;;3.13;74.82;100153.47;4176868;28;20239;-54
2022/01/22 02:53:27;;;;;;;9.75;8.77;;;;;;;3.14;74.98;100155.19;4178291;28;20231;-54
2022/01/22 02:55:29;;;;;;;12.00;9.52;;;;;;;3.13;75.14;100150.78;4168074;28;20272;-55
2022/01/22 02:57:32;;;;;;;16.35;10.55;;;;;;;3.18;75.45;100153.00;4176881;28;20239;-55
2022/01/22 02:59:34;;;;;;;10.73;9.73;;;;;;;3.19;74.99;100146.56;4177564;28;20199;-55
2022/01/22 03:01:35;;;;;;;11.82;9.07;;;;;;;3.15;75.50;100139.81;4168519;28;20582;-55
2022/01/22 03:03:38;;;;;;;10.30;9.40;;;;;;;3.10;75.00;100137.59;4179147;28;20204;-53
2022/01/22 03:05:39;;;;;;;10.45;9.20;;;;;;;3.15;75.09;100135.22;4163505;28;20205;-54
2022/01/22 03:07:43;;;;;;;15.00;10.55;;;;;;;3.17;75.46;100133.22;4177833;28;20200;-54
2022/01/22 03:09:47;;;;;;;9.13;8.32;;;;;;;3.18;75.47;100134.06;4174122;28;20611;-52
2022/01/22 03:23:08;;;;;;;11.45;9.93;;;;;;;3.21;74.88;100145.41;4177467;28;20231;-53
2022/01/22 03:27:32;;;;;;;10.38;9.13;;;;;;;3.16;74.87;100147.78;4177319;28;20188;-54
2022/01/22 03:29:39;;;;;;;9.52;8.50;;;;;;;3.08;75.59;100155.00;4177277;28;20204;-53
2022/01/22 03:31:42;;;;;;;10.02;8.98;;;;;;;3.07;75.69;100137.91;4179854;28;20220;-54
2022/01/22 03:33:44;;;;;;;13.35;9.65;;;;;;;3.04;75.50;100148.19;4176439;28;20204;-54
2022/01/22 03:35:55;;;;;;;16.67;9.00;;;;;;;3.10;75.37;100143.00;4179057;28;20211;-53
2022/01/22 03:37:58;;;;;;;9.30;8.40;;;;;;;3.18;75.15;100151.16;4192191;28;20223;-53
2022/01/22 03:40:00;;;;;;;19.08;10.15;;;;;;;3.11;75.63;100144.69;4179293;28;20211;-54
2022/01/22 03:42:02;;;;;;;9.98;8.57;;;;;;;3.07;75.35;100148.72;4178475;28;20791;-54
2022/01/22 03:44:08;;;;;;;10.98;8.95;;;;;;;3.05;75.58;100139.94;4178173;28;20242;-52
2022/01/22 03:46:10;;;;;;;10.32;8.93;;;;;;;3.07;75.07;100147.91;4179403;28;20195;-54
2022/01/22 03:48:12;;;;;;;11.23;9.82;;;;;;;3.08;75.18;100150.41;4179966;28;20274;-52
2022/01/22 03:50:14;;;;;;;12.63;9.35;;;;;;;3.12;75.21;100146.38;4177114;28;20250;-53
2022/01/22 03:52:17;;;;;;;9.13;8.38;;;;;;;3.15;74.92;100151.47;4166749;28;20271;-54
2022/01/22 03:54:19;;;;;;;10.27;8.15;;;;;;;3.10;74.70;100153.81;4189762;28;20199;-55
2022/01/22 03:56:24;;;;;;;10.43;8.57;;;;;;;3.09;74.90;100152.13;4190978;28;20219;-53
2022/01/22 03:58:26;;;;;;;9.68;8.23;;;;;;;3.10;75.46;100153.81;4179294;28;20210;-54
2022/01/22 04:00:28;;;;;;;10.82;9.68;;;;;;;3.10;75.40;100148.41;4175816;28;20204;-53
2022/01/22 04:04:54;;;;;;;12.15;10.75;;;;;;;3.12;75.02;100151.78;4177978;28;20195;-53
2022/01/22 04:09:23;;;;;;;22.55;9.45;;;;;;;3.09;74.86;100154.84;4158174;28;20207;-53
2022/01/22 04:11:27;;;;;;;13.50;8.43;;;;;;;3.14;74.92;100154.34;4177556;28;20220;-55
2022/01/22 04:13:33;;;;;;;8.80;8.10;;;;;;;3.10;74.94;100148.41;4193337;28;20810;-53
2022/01/22 04:15:38;;;;;;;9.10;8.30;;;;;;;3.12;74.79;100151.78;4177092;28;20721;-54
2022/01/22 04:24:51;;;;;;;10.70;8.38;;;;;;;3.09;75.51;100144.03;4175581;28;20202;-54
2022/01/22 04:27:06;;;;;;;11.85;9.00;;;;;;;3.07;75.44;100143.31;4165408;28;20266;-52
2022/01/22 04:29:08;;;;;;;8.68;7.88;;;;;;;3.14;75.17;100133.53;4176815;28;20204;-53
2022/01/22 04:31:09;;;;;;;9.68;8.52;;;;;;;3.13;74.94;100131.84;4177900;28;20348;-54
2022/01/22 04:33:12;;;;;;;18.98;9.05;;;;;;;3.06;75.24;100125.41;4176813;28;20261;-53
2022/01/22 04:35:14;;;;;;;9.80;8.27;;;;;;;3.12;75.17;100132.88;4176326;28;20208;-53
2022/01/22 04:37:18;;;;;;;10.18;8.73;;;;;;;3.12;74.69;100130.16;4176847;28;20223;-55
2022/01/22 04:39:22;;;;;;;12.73;8.05;;;;;;;3.12;74.97;100130.16;4174979;28;20214;-54
2022/01/22 04:41:23;;;;;;;8.52;7.72;;;;;;;3.20;75.06;100132.88;4178996;28;20263;-55
2022/01/22 04:43:26;;;;;;;13.15;8.05;;;;;;;3.07;74.85;100137.91;4178551;28;20274;-54
2022/01/22 04:45:48;;;;;;;9.77;8.32;;;;;;;3.16;74.58;100134.25;4178265;28;20662;-53
2022/01/22 04:52:38;;;;;;;15.18;8.27;;;;;;;3.01;75.07;100130.44;4174120;28;20224;-53
2022/01/22 04:54:59;;;;;;;12.80;8.80;;;;;;;3.03;74.89;100136.56;4176720;28;20230;-54
2022/01/22 04:57:01;;;;;;;11.43;8.25;;;;;;;3.06;75.22;100133.50;4179420;28;20204;-52
2022/01/22 04:59:03;;;;;;;8.45;7.68;;;;;;;3.06;74.98;100119.16;4176760;28;20212;-53
2022/01/22 05:01:05;;;;;;;12.98;7.80;;;;;;;3.10;74.77;100115.97;4177312;28;20289;-55
2022/01/22 05:03:07;;;;;;;12.38;7.70;;;;;;;3.09;74.43;100125.09;4176161;28;20208;-53
2022/01/22 05:05:10;;;;;;;11.43;8.48;;;;;;;3.10;74.55;100120.50;4171166;28;20258;-52
2022/01/22 05:07:11;;;;;;;14.85;8.23;;;;;;;3.06;74.99;100121.88;4174098;28;20224;-52
2022/01/22 05:09:13;;;;;;;12.80;7.65;;;;;;;3.06;74.41;100124.56;4174120;28;20203;-54
2022/01/22 05:11:16;;;;;;;7.88;6.90;;;;;;;3.11;75.14;100127.63;4175016;28;20251;-53
2022/01/22 05:13:18;;;;;;;11.77;8.30;;;;;;;3.11;75.05;100123.06;4173112;28;20765;-53
2022/01/22 05:15:21;;;;;;;8.27;7.00;;;;;;;3.05;74.54;100128.25;4172799;28;20746;-53
2022/01/22 05:17:22;;;;;;;11.60;7.55;;;;;;;3.04;75.00;100127.44;4174871;28;20219;-55
2022/01/22 05:19:44;;;;;;;7.75;6.72;;;;;;;3.09;74.55;100141.31;4173516;28;20662;-52
2022/01/22 05:21:49;;;;;;;7.95;6.93;;;;;;;3.02;74.68;100134.00;4176101;28;20227;-53
2022/01/22 05:23:52;;;;;;;9.95;7.03;;;;;;;3.07;74.71;100137.06;4175138;28;20211;-53
2022/01/22 05:25:59;;;;;;;7.72;6.53;;;;;;;3.09;74.61;100138.63;4174302;28;20200;-53
2022/01/22 05:32:29;;;;;;;8.80;7.15;;;;;;;3.03;74.32;100146.50;4178765;28;20282;-54
2022/01/22 05:37:04;;;;;;;9.43;8.50;;;;;;;2.99;74.51;100154.09;4179656;28;20231;-54
2022/01/22 05:39:11;;;;;;;9.52;7.40;;;;;;;3.01;74.93;100153.94;4162273;28;20224;-55
2022/01/22 05:41:13;;;;;;;10.52;7.00;;;;;;;3.02;74.32;100167.28;4160144;28;20235;-54
2022/01/22 05:43:16;;;;;;;6.30;5.80;;;;;;;2.99;75.36;100162.22;4175223;28;20200;-53
2022/01/22 05:45:18;;;;;;;16.55;8.07;;;;;;;3.01;74.64;100162.88;4169158;28;20200;-55
2022/01/22 05:47:26;;;;;;;8.50;6.00;;;;;;;3.02;74.92;100161.03;4179251;28;20774;-54
2022/01/22 05:49:30;;;;;;;7.78;6.53;;;;;;;3.02;74.96;100151.06;4178053;28;20266;-54
2022/01/22 05:51:33;;;;;;;9.73;6.30;;;;;;;3.01;75.25;100149.38;4178522;28;20231;-54
2022/01/22 06:00:17;;;;;;;15.23;6.47;;;;;;;3.17;73.91;100149.47;4177072;28;20654;-53
2022/01/22 06:02:19;;;;;;;9.15;6.72;;;;;;;3.17;73.94;100149.47;4160507;28;20220;-52
2022/01/22 06:04:21;;;;;;;6.35;5.75;;;;;;;3.10;73.95;100148.41;4167405;28;20212;-54
2022/01/22 06:06:22;;;;;;;11.05;7.13;;;;;;;3.14;73.96;100160.59;4178897;28;20650;-54
2022/01/22 06:08:33;;;;;;;5.93;5.13;;;;;;;3.16;73.53;100157.72;4175073;28;20651;-53
2022/01/22 06:10:35;;;;;;;8.20;5.97;;;;;;;3.10;73.54;100156.53;4171595;28;20685;-53
2022/01/22 06:14:38;;;;;;;9.95;7.57;;;;;;;3.06;73.95;100163.25;4178923;28;20212;-53
2022/01/22 06:16:40;;;;;;;12.60;5.55;;;;;;;3.15;74.03;100156.88;4176466;28;20254;-52
2022/01/22 06:18:42;;;;;;;8.18;6.20;;;;;;;3.09;74.38;100172.91;4178767;28;20216;-52
2022/01/22 06:20:44;;;;;;;6.65;5.88;;;;;;;3.09;74.12;100168.34;4161694;28;20233;-53
2022/01/22 06:22:46;;;;;;;7.32;6.60;;;;;;;3.14;74.42;100168.69;4178433;28;20235;-53
2022/01/22 06:24:48;;;;;;;5.93;5.35;;;;;;;3.08;74.28;100176.63;4178591;28;20286;-54
2022/01/22 06:26:50;;;;;;;8.05;5.97;;;;;;;3.12;73.93;100178.84;4180458;28;20191;-54
2022/01/22 06:28:51;;;;;;;6.70;4.90;;;;;;;3.08;74.35;100179.31;4192856;28;20211;-53
2022/01/22 06:30:53;;;;;;;7.82;6.15;;;;;;;3.08;74.33;100196.38;4175706;28;20238;-53
2022/01/22 06:32:55;;;;;;;8.32;5.28;;;;;;;3.15;74.40;100194.72;4180558;28;20200;-53
2022/01/22 06:34:57;;;;;;;11.65;6.53;;;;;;;3.06;74.46;100189.47;4177046;28;20204;-54
2022/01/22 06:37:01;;;;;;;7.55;5.75;;;;;;;3.03;74.58;100190.63;4161229;28;20778;-55
2022/01/22 06:39:16;;;;;;;8.30;6.18;;;;;;;3.06;74.51;100195.72;4159840;28;20444;-53
2022/01/22 06:43:38;;;;;;;6.30;5.68;;;;;;;3.13;74.19;100204.03;4178822;28;20203;-55
2022/01/22 06:45:40;;;;;;;5.60;5.05;;;;;;;3.15;73.95;100199.31;4178006;28;20211;-54
2022/01/22 06:47:42;;;;;;;5.97;5.13;;;;;;;3.14;74.43;100203.03;4177088;28;20359;-53
2022/01/22 06:49:44;;;;;;;7.43;5.00;;;;;;;3.10;73.95;100207.91;4164185;28;20205;-55
2022/01/22 06:51:46;;;;;;;6.68;6.03;;;;;;;3.14;73.74;100209.25;4172880;28;20740;-52
2022/01/22 06:53:49;;;;;;;12.10;6.10;;;;;;;3.09;74.20;100208.06;4176744;28;20646;-54
2022/01/22 06:56:02;;;;;;;11.07;6.18;;;;;;;3.09;74.37;100205.34;4179478;28;20220;-54
2022/01/22 06:58:03;;;;;;;6.47;5.35;;;;;;;3.19;74.28;100206.94;4160439;28;20255;-54
2022/01/22 07:00:06;;;;;;;6.43;5.18;;;;;;;3.24;73.92;100199.19;4174882;28;20623;-53
2022/01/22 07:02:09;;;;;;;6.38;5.22;;;;;;;3.22;73.55;100201.22;4186303;28;20216;-55
2022/01/22 07:04:12;;;;;;;10.23;5.90;;;;;;;3.08;74.24;100204.50;4176719;28;20231;-53
2022/01/22 07:06:14;;;;;;;14.82;6.30;;;;;;;3.06;74.17;100206.53;4190702;28;20227;-52
2022/01/22 07:08:16;;;;;;;6.10;4.65;;;;;;;3.04;73.94;100197.72;4172984;28;20204;-53
2022/01/22 07:10:17;;;;;;;7.35;5.38;;;;;;;2.98;74.49;100195.66;4197044;28;20231;-55
2022/01/22 07:12:19;;;;;;;7.63;5.50;;;;;;;2.90;74.17;100195.63;4175184;28;20667;-54
2022/01/22 07:14:21;;;;;;;10.77;5.82;;;;;;;2.96;74.77;100205.81;4172655;28;20208;-55
2022/01/22 07:16:23;;;;;;;7.93;5.53;;;;;;;2.94;75.13;100207.81;4152163;28;20308;-55
2022/01/22 07:18:25;;;;;;;11.20;5.63;;;;;;;3.00;74.28;100201.75;4179676;28;20223;-54
2022/01/22 07:20:29;;;;;;;5.65;5.18;;;;;;;2.94;74.64;100213.22;4173194;28;20211;-54
2022/01/22 07:24:37;;;;;;;6.75;6.03;;;;;;;2.98;74.36;100209.19;4176378;28;20230;-53
2022/01/22 07:26:39;;;;;;;12.82;6.43;;;;;;;2.97;74.96;100218.31;4175248;28;21064;-54
2022/01/22 07:28:40;;;;;;;8.00;5.95;;;;;;;2.97;75.04;100214.75;4179403;28;20878;-54
2022/01/22 07:30:44;;;;;;;17.58;4.85;;;;;;;2.97;74.74;100234.53;4179526;28;20196;-54
2022/01/22 07:32:49;;;;;;;5.85;5.35;;;;;;;3.06;74.68;100233.56;4177831;28;20720;-54
2022/01/22 07:34:50;;;;;;;7.60;5.63;;;;;;;2.99;74.60;100226.25;4177476;28;20208;-53
2022/01/22 07:36:52;;;;;;;14.82;5.60;;;;;;;3.00;74.87;100223.38;4179751;28;20223;-53
2022/01/22 07:38:55;;;;;;;8.35;6.05;;;;;;;2.97;74.20;100221.03;4179896;28;20231;-53
2022/01/22 07:40:57;;;;;;;6.03;5.45;;;;;;;2.98;74.97;100225.41;4191157;28;20211;-55
2022/01/22 07:42:59;;;;;;;6.68;6.05;;;;;;;3.01;74.51;100225.06;4174912;28;20217;-54
2022/01/22 07:45:02;;;;;;;9.52;7.05;;;;;;;3.02;74.62;100229.47;4176740;28;20273;-56
2022/01/22 07:47:04;;;;;;;7.07;6.38;;;;;;;2.96;74.92;100232.84;4172892;28;20346;-55
2022/01/22 07:49:06;;;;;;;7.25;6.20;;;;;;;2.99;74.79;100232.50;4174071;28;20484;-54
2022/01/22 07:51:08;;;;;;;6.93;5.78;;;;;;;3.00;74.46;100238.78;4171635;28;20250;-55
2022/01/22 07:53:09;;;;;;;7.65;6.88;;;;;;;3.02;75.10;100224.06;4174499;28;20204;-54
2022/01/22 07:55:12;;;;;;;6.47;5.97;;;;;;;3.02;74.30;100226.75;4176197;28;20258;-54
2022/01/22 07:57:13;;;;;;;5.90;5.50;;;;;;;3.05;74.68;100231.00;4172676;28;20235;-56
2022/01/22 07:59:15;;;;;;;5.60;5.10;;;;;;;3.06;74.66;100235.44;4176968;28;20241;-53
2022/01/22 08:01:17;;;;;;;5.85;5.35;;;;;;;3.03;74.99;100228.50;4193568;28;20238;-54
2022/01/22 08:03:24;;;;;;;7.68;6.43;;;;;;;3.02;74.92;100226.75;4176946;28;20204;-55
2022/01/22 08:05:25;;;;;;;7.40;5.75;;;;;;;3.08;75.07;100231.53;4173355;28;20985;-54
2022/01/22 08:07:27;;;;;;;7.18;6.40;;;;;;;3.16;74.20;100231.59;4160666;28;20200;-55
2022/01/22 08:09:32;;;;;;;8.32;5.80;;;;;;;3.21;74.32;100231.94;4175294;28;20247;-54
2022/01/22 08:11:34;;;;;;;7.15;5.72;;;;;;;3.26;73.80;100229.63;4187721;28;20233;-55
2022/01/22 08:13:36;;;;;;;5.63;5.05;;;;;;;3.17;74.19;100236.00;4176954;28;20500;-54
2022/01/22 08:15:37;;;;;;;7.05;6.32;;;;;;;3.18;74.59;100232.28;4173887;28;20224;-56
2022/01/22 08:17:39;;;;;;;6.68;6.18;;;;;;;3.26;74.33;100232.31;4158782;28;20267;-55
2022/01/22 08:19:42;;;;;;;7.63;6.93;;;;;;;3.27;73.91;100242.13;4171957;28;20204;-55
2022/01/22 08:21:45;;;;;;;6.68;5.97;;;;;;;3.21;74.25;100237.34;4189027;28;20698;-55
2022/01/22 08:23:47;;;;;;;7.35;6.65;;;;;;;3.31;74.01;100231.81;4173672;28;20204;-55
2022/01/22 08:25:49;;;;;;;8.48;6.47;;;;;;;3.22;74.04;100230.97;4171120;28;20208;-55
2022/01/22 08:30:09;;;;;;;7.25;6.55;;;;;;;3.42;74.23;100236.97;4176596;28;20546;-53
2022/01/22 08:36:54;;;;;;;8.73;5.70;;;;;;;3.48;74.01;100241.72;4176334;28;20220;-52
2022/01/22 08:38:56;;;;;;;6.60;5.80;;;;;;;3.52;73.99;100235.81;4174305;28;21001;-55
2022/01/22 08:40:58;;;;;;;8.45;6.88;;;;;;;3.46;74.14;100241.88;4174610;28;20720;-55
2022/01/22 08:43:00;;;;;;;7.40;6.78;;;;;;;3.50;73.88;100237.84;4174515;28;20869;-53
2022/01/22 08:45:03;;;;;;;8.40;6.53;;;;;;;3.47;73.92;100240.03;4171116;28;21108;-54
2022/01/22 08:47:05;;;;;;;8.07;6.70;;;;;;;3.49;74.03;100241.56;4183291;28;20325;-55
2022/01/22 08:49:08;;;;;;;6.68;5.97;;;;;;;3.67;73.06;100233.34;4173141;28;20212;-54
2022/01/22 08:51:09;;;;;;;7.60;7.00;;;;;;;3.57;74.09;100238.03;4173128;28;20624;-53
2022/01/22 08:53:20;;;;;;;9.68;6.43;;;;;;;3.58;73.40;100251.41;4171054;28;20684;-52
2022/01/22 08:55:21;;;;;;;8.77;5.82;;;;;;;3.58;73.52;100250.53;4172981;28;20230;-53
2022/01/22 08:57:23;;;;;;;8.10;6.70;;;;;;;3.52;74.13;100246.63;4173402;28;20667;-54
2022/01/22 08:59:25;;;;;;;7.15;6.28;;;;;;;3.66;73.85;100254.13;4172867;28;20243;-53
2022/01/22 09:01:27;;;;;;;10.05;7.97;;;;;;;3.70;73.48;100250.09;4174421;28;20358;-53
2022/01/22 09:03:30;;;;;;;13.93;9.82;;;;;;;3.67;73.45;100261.22;4176824;28;20269;-55
2022/01/22 09:05:35;;;;;;;11.30;9.30;;;;;;;3.66;73.61;100253.31;4172033;28;20207;-54
2022/01/22 09:07:37;;;;;;;11.77;7.18;;;;;;;3.76;73.75;100257.56;4187809;28;20203;-53
2022/01/22 09:09:39;;;;;;;13.05;8.90;;;;;;;3.76;73.70;100254.84;4173646;28;20733;-54
2022/01/22 09:11:42;;;;;;;9.52;8.73;;;;;;;3.74;73.41;100259.56;4173084;28;20274;-54
2022/01/22 09:13:44;;;;;;;8.93;8.23;;;;;;;3.82;73.87;100262.31;4174297;28;20212;-54
2022/01/22 09:15:47;;;;;;;10.45;7.55;;;;;;;3.99;73.16;100255.91;4152951;28;20803;-54
2022/01/22 09:17:49;;;;;;;9.23;8.20;;;;;;;3.95;73.42;100267.25;4164772;28;20789;-54
2022/01/22 09:19:56;;;;;;;8.80;7.15;;;;;;;3.97;73.19;100271.50;4155239;28;20208;-55
2022/01/22 09:22:00;;;;;;;10.23;8.45;;;;;;;3.93;73.19;100272.81;4169624;28;20447;-53
2022/01/22 09:24:03;;;;;;;8.18;7.18;;;;;;;3.94;72.92;100273.69;4172973;28;20278;-53
2022/01/22 09:26:05;;;;;;;8.18;7.50;;;;;;;4.01;73.02;100270.13;4156900;28;20204;-54
2022/01/22 09:28:08;;;;;;;11.23;8.30;;;;;;;3.99;72.75;100271.34;4157484;28;20243;-54
2022/01/22 09:30:10;;;;;;;11.20;8.23;;;;;;;4.01;73.43;100270.13;4158651;28;20204;-55
2022/01/22 09:32:12;;;;;;;12.52;8.13;;;;;;;4.10;73.47;100271.00;4159476;28;20220;-54
2022/01/22 09:34:13;;;;;;;6.68;6.00;;;;;;;4.19;72.99;100272.75;4161252;28;20610;-55
2022/01/22 09:36:15;;;;;;;8.57;7.78;;;;;;;4.22;72.72;100266.97;4158449;28;20244;-53
2022/01/22 09:38:17;;;;;;;7.97;7.35;;;;;;;4.25;73.06;100267.50;4159538;28;20224;-55
2022/01/22 09:40:19;;;;;;;8.65;7.63;;;;;;;4.24;73.19;100279.34;4153844;28;20782;-53
2022/01/22 09:42:20;;;;;;;10.57;7.65;;;;;;;4.21;72.95;100285.06;4158223;28;20232;-54
2022/01/22 09:44:22;;;;;;;8.93;8.23;;;;;;;4.22;72.77;100275.97;4170936;28;20208;-53
2022/01/22 09:46:25;;;;;;;9.55;8.65;;;;;;;4.34;72.79;100293.56;4158797;28;20254;-55
2022/01/22 09:48:27;;;;;;;8.15;7.47;;;;;;;4.22;72.81;100289.50;4156234;28;21855;-52
2022/01/22 09:50:30;;;;;;;10.13;7.95;;;;;;;4.27;72.22;100297.97;4155192;28;20271;-53
2022/01/22 09:52:32;;;;;;;8.82;8.02;;;;;;;4.29;72.76;100289.69;4160998;28;20274;-53
2022/01/22 09:54:34;;;;;;;8.73;8.02;;;;;;;4.33;72.46;100291.03;4163259;28;20287;-54
2022/01/22 09:56:36;;;;;;;9.05;7.75;;;;;;;4.26;72.77;100285.44;4158517;28;20231;-53
2022/01/22 09:58:38;;;;;;;6.78;6.18;;;;;;;4.30;72.82;100286.81;4161132;28;20250;-54
2022/01/22 10:00:40;;;;;;;9.65;7.70;;;;;;;4.31;72.97;100284.94;4162591;28;20201;-54
2022/01/22 10:02:47;;;;;;;9.15;8.27;;;;;;;4.37;72.97;100292.38;4146316;28;20220;-54
2022/01/22 10:04:52;;;;;;;9.75;8.77;;;;;;;4.39;72.94;100285.78;4142795;28;20208;-55
2022/01/22 10:06:54;;;;;;;8.88;8.02;;;;;;;4.53;73.02;100290.53;4162446;28;20200;-54
2022/01/22 10:09:12;;;;;;;8.38;7.65;;;;;;;4.51;72.57;100292.59;4159197;28;20205;-55
2022/01/22 10:11:28;;;;;;;9.45;8.25;;;;;;;4.53;72.48;100292.44;4158338;28;20224;-55
2022/01/22 10:13:37;;;;;;;8.10;7.03;;;;;;;4.58;72.56;100300.88;4143308;28;20205;-53
2022/01/22 10:15:39;;;;;;;7.50;6.80;;;;;;;4.64;72.00;100295.66;4156348;28;20220;-54
2022/01/22 10:17:51;;;;;;;9.93;7.05;;;;;;;4.59;71.81;100280.91;4159331;28;20220;-54
2022/01/22 10:19:53;;;;;;;7.45;6.65;;;;;;;4.73;71.90;100289.19;4144674;28;20225;-54
2022/01/22 10:21:57;;;;;;;8.52;7.72;;;;;;;4.89;71.87;100281.06;4162629;28;20228;-52
2022/01/22 10:24:27;;;;;;;8.15;7.25;;;;;;;4.85;71.54;100276.13;4143711;28;20707;-53
2022/01/22 10:26:29;;;;;;;8.25;7.45;;;;;;;4.75;72.01;100281.75;4175103;28;20204;-52
2022/01/22 10:28:40;;;;;;;6.97;6.38;;;;;;;4.87;71.51;100280.38;4157615;28;20197;-52
2022/01/22 10:30:44;;;;;;;7.35;6.78;;;;;;;4.86;71.78;100278.69;4158801;28;20205;-52
2022/01/22 10:35:03;;;;;;;8.02;7.15;;;;;;;4.97;72.01;100281.06;4158276;28;20203;-54
2022/01/22 10:37:05;;;;;;;9.35;6.97;;;;;;;5.02;71.64;100284.09;4152822;28;20308;-54
2022/01/22 10:39:21;;;;;;;5.97;5.38;;;;;;;5.13;71.69;100274.75;4157935;28;20196;-52
2022/01/22 10:41:41;;;;;;;6.60;6.10;;;;;;;5.18;71.67;100284.06;4138052;28;20256;-54
2022/01/22 10:43:54;;;;;;;6.75;5.97;;;;;;;5.22;71.74;100280.00;4157091;28;20636;-53
2022/01/22 10:46:07;;;;;;;9.07;7.40;;;;;;;5.16;71.80;100270.66;4150654;28;20702;-54
2022/01/22 10:48:17;;;;;;;6.88;6.38;;;;;;;5.24;71.36;100267.09;4174202;28;20287;-53
2022/01/22 10:50:20;;;;;;;7.88;7.28;;;;;;;5.13;71.01;100270.16;4159506;28;20234;-52
2022/01/22 10:52:22;;;;;;;7.05;6.35;;;;;;;5.15;70.60;100268.97;4160957;28;20327;-54
2022/01/22 10:54:29;;;;;;;7.65;6.95;;;;;;;5.04;70.91;100266.63;4177840;28;20215;-54
2022/01/22 10:56:32;;;;;;;9.05;8.27;;;;;;;4.98;70.97;100266.47;4156700;28;20197;-53
2022/01/22 10:58:34;;;;;;;7.43;6.72;;;;;;;5.04;70.76;100276.63;4163649;28;20259;-52
2022/01/22 11:00:36;;;;;;;8.73;8.02;;;;;;;4.97;71.46;100273.75;4161772;28;20212;-54
2022/01/22 11:02:40;;;;;;;11.05;7.53;;;;;;;4.94;71.59;100281.38;4158478;28;20260;-54
2022/01/22 11:04:42;;;;;;;10.27;7.75;;;;;;;4.95;71.72;100280.41;4177280;28;20211;-53
2022/01/22 11:06:56;;;;;;;8.52;7.80;;;;;;;5.00;71.43;100277.16;4161095;28;20220;-53
2022/01/22 11:09:18;;;;;;;7.80;7.20;;;;;;;5.02;71.30;100285.97;4160880;28;20235;-53
2022/01/22 11:11:21;;;;;;;7.75;7.05;;;;;;;4.98;71.37;100274.59;4161930;28;20279;-52
2022/01/22 11:13:23;;;;;;;7.07;6.47;;;;;;;4.97;71.55;100279.19;4162155;28;20209;-54